Terminal Aerodrome Forecast
Issued by NWS Newport/Morehead City, NC

Home | Current Version | Previous Version | Text Only | Print | Product List | Glossary Off
Versions: 1 2 3 4 5 6 7 8 9 10 11 12 13 14

000
FTUS42 KMHX 210535
TAFEWN
TAF
KEWN 210535Z 2106/2206 20003KT 6SM -SHRA BKN025
      TEMPO 2107/2111 BKN015
     FM211100 VRB03KT 6SM -SHRA OVC020
     FM211500 25006KT P6SM OVC035
     FM212300 21006KT P6SM BKN060=

USA.gov is the U.S. government's official web portal to all federal, state and local government web resources and services.